Гора Пашина

Карта отелей и гостиниц, располагающихся рядом с аэропортом Гора Пашина :

Гора Пашина
Чебаркуль
Челябинская область 55° 7' 33.7188" N, 60° 33' 47.2788" E
Гора Пашина
Чебаркуль
Челябинская область 55° 7' 33.7188" N, 60° 33' 47.2788" E
Код аэродрома ИКАО: 
H558
Код аэродрома RU: 
Х558
Координаты: 
N55.12603° E060.56313°
Превышение над уровнем моря : 
300
Основная полоса: 
06/24
Курс магнитный: 
055/235
Длина основной ВПП: 
206
Ширина основной ВПП: 
165
Покрытие основной ВПП: 
Твёрдое
Тип: 
Вертодром
Освещение ВПП: 
Нет
Класс аэродрома: 
Статус: 
Действующий
Принадлежность: 
МО
Сайт: 
E-mail аэродрома: 
Страна: 
Россия
Регион: 
Челябинская область
Город: 
Чебаркуль
Дополнительная информация: 
Оператор: вертодром учебного полигона войск Центрального ВО (Азов) с 9-ю ВП (20x20м).

Найти трансфер

С помощью этой формы Вы можете найти трансфер из аэропорта Гора Пашина в город, аэропорт или вокзал:

Карта места

Javascript is required to view this map.

Погода в аэропортах:

Авиационная погода в Ханты-Мансийске

Регион: 
Погода METAR: 
USHH 141730Z 14004MPS 9999 -RA NSC 20/13 Q1019 R06/010060 TEMPO 3000 -TSRA BKN010CB
Время наблюдения: 
2020-07-14T17:30:00Z
Температура C: 
20.0
Точка росы: 
13.0
Направление ветра: 
140
Скорость ветра: 
8
Метеорологическая видимость: 
6.21
Явления погоды: 
-RA
Условия полета: 
VFR
Аэропорт подробнее: 

Авиационная погода в аэропорту Новый

Регион: 
Погода METAR: 
UHHH 141730Z VRB01MPS 3600 BR NSC 17/15 Q1004 R23L/090060 NOSIG RMK QBB050 QFE747/0996
Время наблюдения: 
2020-07-14T17:30:00Z
Температура C: 
17.0
Точка росы: 
15.0
Направление ветра: 
0
Скорость ветра: 
2
Метеорологическая видимость: 
2.24
Явления погоды: 
BR
Условия полета: 
IFR
Аэропорт подробнее: 

Авиационная погода в Брянске

Регион: 
Погода METAR: 
UUBP 141500Z 33009MPS 6000 -SHRA BKN007 OVC017CB 15/14 Q1003 R34/190060 NOSIG RMK QFE735/0980
Время наблюдения: 
2020-07-14T15:00:00Z
Температура C: 
15.0
Точка росы: 
14.0
Направление ветра: 
330
Скорость ветра: 
17
Метеорологическая видимость: 
3.73
Явления погоды: 
-SHRA
Условия полета: 
IFR
Аэропорт подробнее: 

Авиационная погода в аэропорту Сокол

Регион: 
Погода METAR: 
UHMM 141800Z 00000MPS 0250 0200W R10/0200N FG VV002 09/08 Q0998 RMK QBB060 MT OBSC QFE734 R28/24001MPS
Время наблюдения: 
2020-07-14T18:00:00Z
Температура C: 
9.0
Точка росы: 
8.0
Направление ветра: 
0
Скорость ветра: 
0
Метеорологическая видимость: 
0.16
Явления погоды: 
FG
Условия полета: 
LIFR
Аэропорт подробнее: